Time;durP1;ratioP1;P1;durP2;ratioP2;P2;SDS_P1;SDS_P2;PMS_P1;PMS_P2;Temp;Humidity;BMP_temperature;BMP_pressure;BME280_temperature;BME280_humidity;BME280_pressure;Samples;Min_cycle;Max_cycle;Signal;HPM_P1;HPM_P2
2024/01/01 00:02:21;;;;;;;97.57;45.17;;;;;;;;;;10544083;28;20647;-75
2024/01/01 00:07:24;;;;;;;57.78;22.65;;;;;;;;;;10552386;27;20512;-75
2024/01/01 00:12:28;;;;;;;39.40;16.23;;;;;;;;;;10546821;28;20117;-74
2024/01/01 00:17:30;;;;;;;24.95;9.80;;;;;;;;;;10552592;28;20505;-76
2024/01/01 00:22:33;;;;;;;35.78;14.13;;;;;;;;;;10548193;27;20444;-75
2024/01/01 00:27:38;;;;;;;17.42;7.75;;;;;;;;;;10556263;28;20491;-74
2024/01/01 00:32:40;;;;;;;28.27;9.00;;;;;;;;;;10550444;28;20553;-74
2024/01/01 00:37:43;;;;;;;31.42;10.52;;;;;;;;;;10544132;28;20055;-76
2024/01/01 00:42:47;;;;;;;35.28;12.77;;;;;;;;;;10547343;28;20028;-76
2024/01/01 00:47:50;;;;;;;12.68;5.50;;;;;;;;;;10549716;28;20047;-76
2024/01/01 00:52:52;;;;;;;14.02;6.53;;;;;;;;;;10541827;28;20370;-75
2024/01/01 00:57:57;;;;;;;22.25;7.78;;;;;;;;;;10538571;28;20109;-74
2024/01/01 01:02:59;;;;;;;11.80;4.93;;;;;;;;;;10552654;28;20075;-76
2024/01/01 01:08:02;;;;;;;7.95;3.63;;;;;;;;;;10556224;28;20048;-75
2024/01/01 01:13:06;;;;;;;8.65;3.85;;;;;;;;;;10545251;28;20033;-75
2024/01/01 01:18:09;;;;;;;7.85;3.05;;;;;;;;;;10546154;28;20066;-75
2024/01/01 01:23:12;;;;;;;8.57;3.40;;;;;;;;;;10546395;28;20531;-75
2024/01/01 01:28:22;;;;;;;6.47;2.05;;;;;;;;;;10549639;28;20070;-75
2024/01/01 01:33:25;;;;;;;6.55;2.97;;;;;;;;;;10548789;28;20035;-75
2024/01/01 01:38:28;;;;;;;5.13;1.80;;;;;;;;;;10542918;28;20074;-75
2024/01/01 01:43:32;;;;;;;3.35;1.75;;;;;;;;;;10542800;28;20034;-75
2024/01/01 01:48:35;;;;;;;4.50;2.13;;;;;;;;;;10536123;27;20126;-75
2024/01/01 01:53:39;;;;;;;6.88;2.42;;;;;;;;;;10556221;27;20039;-75
2024/01/01 01:58:45;;;;;;;5.93;2.70;;;;;;;;;;10545476;27;21356;-75
2024/01/01 02:03:48;;;;;;;5.53;2.05;;;;;;;;;;10559303;27;20038;-75
2024/01/01 02:08:51;;;;;;;4.63;2.25;;;;;;;;;;10548549;28;20039;-74
2024/01/01 02:14:06;;;;;;;8.32;2.35;;;;;;;;;;10546865;28;20032;-75
2024/01/01 02:19:11;;;;;;;5.50;2.17;;;;;;;;;;10552682;27;20040;-75
2024/01/01 02:24:15;;;;;;;4.13;1.77;;;;;;;;;;10548077;28;20036;-75
2024/01/01 02:29:18;;;;;;;3.40;1.63;;;;;;;;;;10547404;28;20043;-75
2024/01/01 02:34:22;;;;;;;2.67;1.30;;;;;;;;;;10554508;27;20092;-76
2024/01/01 02:39:26;;;;;;;6.57;2.03;;;;;;;;;;10557850;27;20040;-73
2024/01/01 02:44:29;;;;;;;2.15;0.90;;;;;;;;;;10551441;28;20411;-74
2024/01/01 02:49:31;;;;;;;4.35;1.40;;;;;;;;;;10556551;28;20036;-73
2024/01/01 02:54:35;;;;;;;2.63;1.05;;;;;;;;;;10551481;27;20040;-75
2024/01/01 02:59:38;;;;;;;3.63;1.67;;;;;;;;;;10526236;28;20123;-75
2024/01/01 03:04:40;;;;;;;4.80;1.17;;;;;;;;;;10554820;28;20046;-75
2024/01/01 03:09:44;;;;;;;1.00;0.70;;;;;;;;;;10547489;28;20031;-75
2024/01/01 03:14:48;;;;;;;3.05;1.30;;;;;;;;;;10555744;27;20679;-75
2024/01/01 03:19:51;;;;;;;4.20;1.10;;;;;;;;;;10550521;27;20037;-76
2024/01/01 03:24:55;;;;;;;2.90;1.60;;;;;;;;;;10544974;28;20497;-77
2024/01/01 03:30:00;;;;;;;3.85;1.60;;;;;;;;;;10549771;28;20051;-75
2024/01/01 03:35:02;;;;;;;2.22;0.95;;;;;;;;;;10557083;27;20050;-76
2024/01/01 03:40:07;;;;;;;4.97;1.63;;;;;;;;;;10551629;28;20127;-76
2024/01/01 03:45:10;;;;;;;2.83;0.85;;;;;;;;;;10550946;27;20122;-75
2024/01/01 03:50:14;;;;;;;2.17;0.93;;;;;;;;;;10549480;28;20055;-75
2024/01/01 03:55:18;;;;;;;2.17;0.75;;;;;;;;;;10549029;27;20052;-75
2024/01/01 04:00:21;;;;;;;0.45;0.35;;;;;;;;;;10552225;28;20130;-76
2024/01/01 04:05:24;;;;;;;3.03;1.30;;;;;;;;;;10545533;28;20074;-75
2024/01/01 04:10:28;;;;;;;2.67;1.00;;;;;;;;;;10546302;28;20461;-76
2024/01/01 04:15:30;;;;;;;4.63;1.95;;;;;;;;;;10549099;28;20051;-76
2024/01/01 04:20:33;;;;;;;1.30;0.80;;;;;;;;;;10551130;28;20051;-75
2024/01/01 04:25:37;;;;;;;2.13;0.90;;;;;;;;;;10543606;27;20052;-76
2024/01/01 04:30:39;;;;;;;1.92;0.65;;;;;;;;;;10544917;28;20031;-76
2024/01/01 04:35:43;;;;;;;2.10;1.00;;;;;;;;;;10548850;28;20493;-76
2024/01/01 04:40:47;;;;;;;4.03;1.15;;;;;;;;;;10555092;28;20055;-75
2024/01/01 04:45:50;;;;;;;2.28;0.88;;;;;;;;;;10548157;28;20129;-76
2024/01/01 04:50:52;;;;;;;3.33;1.08;;;;;;;;;;10549206;28;20134;-74
2024/01/01 04:55:56;;;;;;;2.50;1.23;;;;;;;;;;10544449;28;20031;-74
2024/01/01 05:00:59;;;;;;;2.60;1.10;;;;;;;;;;10551676;28;20425;-75
2024/01/01 05:06:02;;;;;;;4.88;1.80;;;;;;;;;;10555970;28;20043;-75
2024/01/01 05:11:06;;;;;;;2.75;0.88;;;;;;;;;;10543749;28;20405;-75
2024/01/01 05:16:09;;;;;;;1.70;1.10;;;;;;;;;;10553608;28;20459;-75
2024/01/01 05:21:12;;;;;;;3.97;1.05;;;;;;;;;;10548757;28;20042;-75
2024/01/01 05:26:15;;;;;;;1.98;0.57;;;;;;;;;;10551049;27;20190;-75
2024/01/01 05:31:21;;;;;;;5.45;1.10;;;;;;;;;;10551033;27;20047;-75
2024/01/01 05:36:24;;;;;;;0.80;0.60;;;;;;;;;;10555015;28;20044;-75
2024/01/01 05:41:29;;;;;;;2.00;1.02;;;;;;;;;;10553626;27;20055;-75
2024/01/01 05:46:32;;;;;;;1.48;0.93;;;;;;;;;;10549005;28;20036;-75
2024/01/01 05:51:34;;;;;;;1.70;0.73;;;;;;;;;;10553032;27;20126;-75
2024/01/01 05:56:39;;;;;;;1.55;0.73;;;;;;;;;;10549493;27;20125;-75
2024/01/01 06:01:41;;;;;;;;;;;;;;;;;;10555700;27;20235;-74
2024/01/01 06:06:44;;;;;;;2.65;0.75;;;;;;;;;;10552968;27;19924;-74
2024/01/01 06:11:49;;;;;;;1.02;0.70;;;;;;;;;;10547680;27;20503;-76
2024/01/01 06:16:53;;;;;;;1.38;0.77;;;;;;;;;;10550349;27;20059;-75
2024/01/01 06:21:56;;;;;;;1.13;0.50;;;;;;;;;;10550470;28;20119;-75
2024/01/01 06:27:00;;;;;;;0.60;0.50;;;;;;;;;;10548901;28;20071;-76
2024/01/01 06:32:03;;;;;;;2.70;0.93;;;;;;;;;;10558208;28;20449;-76
2024/01/01 06:37:07;;;;;;;2.65;1.42;;;;;;;;;;10548699;27;20050;-75
2024/01/01 06:42:11;;;;;;;2.33;1.33;;;;;;;;;;10541554;28;20128;-75
2024/01/01 06:47:17;;;;;;;1.40;1.23;;;;;;;;;;10525195;28;20047;-76
2024/01/01 06:52:20;;;;;;;3.15;0.95;;;;;;;;;;10550514;28;20167;-76
2024/01/01 06:57:24;;;;;;;1.55;0.95;;;;;;;;;;10553667;28;20040;-76
2024/01/01 07:02:27;;;;;;;3.30;1.08;;;;;;;;;;10550904;28;20056;-76
2024/01/01 07:07:29;;;;;;;1.70;0.85;;;;;;;;;;10549346;28;20052;-76
2024/01/01 07:12:34;;;;;;;2.88;1.00;;;;;;;;;;10543631;28;20610;-76
2024/01/01 07:17:40;;;;;;;0.68;0.60;;;;;;;;;;10552094;27;20390;-76
2024/01/01 07:22:43;;;;;;;2.65;1.15;;;;;;;;;;10555024;27;20062;-75
2024/01/01 07:27:47;;;;;;;3.67;1.52;;;;;;;;;;10550207;27;20039;-75
2024/01/01 07:32:50;;;;;;;1.05;0.30;;;;;;;;;;10551117;28;20039;-78
2024/01/01 07:37:53;;;;;;;4.38;1.00;;;;;;;;;;10546455;27;20419;-77
2024/01/01 07:42:57;;;;;;;1.23;0.60;;;;;;;;;;10547400;28;20556;-76
2024/01/01 07:48:00;;;;;;;;;;;;;;;;;;10554620;28;20101;-75
2024/01/01 07:53:03;;;;;;;0.88;0.73;;;;;;;;;;10550779;28;19959;-75
2024/01/01 07:58:07;;;;;;;2.55;0.88;;;;;;;;;;10543570;27;20048;-75
2024/01/01 08:03:09;;;;;;;2.63;0.65;;;;;;;;;;10552673;28;20121;-75
2024/01/01 08:08:12;;;;;;;2.90;0.77;;;;;;;;;;10547228;28;20065;-75
2024/01/01 08:13:20;;;;;;;3.42;1.15;;;;;;;;;;10540491;27;20034;-75
2024/01/01 08:18:23;;;;;;;3.13;1.00;;;;;;;;;;10548012;28;20067;-75
2024/01/01 08:23:26;;;;;;;2.17;0.88;;;;;;;;;;10541464;28;20115;-75
2024/01/01 08:28:32;;;;;;;1.23;0.65;;;;;;;;;;10544853;28;20047;-75
2024/01/01 08:33:35;;;;;;;3.28;1.42;;;;;;;;;;10542434;28;20447;-75
2024/01/01 08:38:38;;;;;;;2.17;1.10;;;;;;;;;;10541080;28;20055;-76
2024/01/01 08:43:42;;;;;;;3.92;1.17;;;;;;;;;;10548653;28;20142;-74
2024/01/01 08:48:45;;;;;;;3.40;1.40;;;;;;;;;;10546355;28;20497;-75
2024/01/01 08:53:48;;;;;;;1.27;0.93;;;;;;;;;;10543091;28;20139;-75
2024/01/01 08:58:52;;;;;;;2.70;1.23;;;;;;;;;;10543265;27;20047;-75
2024/01/01 09:03:56;;;;;;;4.85;1.58;;;;;;;;;;10565128;28;20032;-74
2024/01/01 09:08:59;;;;;;;2.65;1.40;;;;;;;;;;10552305;28;20054;-75
2024/01/01 09:14:03;;;;;;;4.57;1.40;;;;;;;;;;10557187;27;20121;-75
2024/01/01 09:19:06;;;;;;;3.45;1.50;;;;;;;;;;10550983;27;20123;-75
2024/01/01 09:24:09;;;;;;;1.80;1.25;;;;;;;;;;10553849;27;20384;-76
2024/01/01 09:29:13;;;;;;;1.50;1.30;;;;;;;;;;10561060;27;20074;-75
2024/01/01 09:34:16;;;;;;;4.32;1.65;;;;;;;;;;10552506;28;20047;-76
2024/01/01 09:39:19;;;;;;;2.75;1.80;;;;;;;;;;10561330;28;20443;-76
2024/01/01 09:44:24;;;;;;;2.83;1.40;;;;;;;;;;10553098;27;20079;-75
2024/01/01 09:49:27;;;;;;;1.73;1.40;;;;;;;;;;10558502;27;20131;-77
2024/01/01 09:54:30;;;;;;;2.45;1.63;;;;;;;;;;10545497;28;20055;-76
2024/01/01 09:59:36;;;;;;;2.85;1.48;;;;;;;;;;10554484;28;20108;-76
2024/01/01 10:04:40;;;;;;;2.47;1.00;;;;;;;;;;10554116;28;20127;-74
2024/01/01 10:09:47;;;;;;;4.90;1.15;;;;;;;;;;10558007;27;20074;-75
2024/01/01 10:14:51;;;;;;;2.33;0.70;;;;;;;;;;10554994;27;20042;-76
2024/01/01 10:19:56;;;;;;;1.45;0.50;;;;;;;;;;10551310;28;20399;-74
2024/01/01 10:25:09;;;;;;;2.40;0.60;;;;;;;;;;10550753;28;20338;-75
2024/01/01 10:30:13;;;;;;;1.17;0.13;;;;;;;;;;10550067;27;20051;-74
2024/01/01 10:35:17;;;;;;;2.55;0.70;;;;;;;;;;10559983;27;20313;-74
2024/01/01 10:40:19;;;;;;;1.73;0.60;;;;;;;;;;10554600;28;20044;-74
2024/01/01 10:45:24;;;;;;;4.45;0.77;;;;;;;;;;10554034;27;20039;-74
2024/01/01 10:50:27;;;;;;;;;;;;;;;;;;10553819;27;20047;-75
2024/01/01 10:55:37;;;;;;;1.85;0.55;;;;;;;;;;10549967;27;20367;-76
2024/01/01 11:00:46;;;;;;;4.82;2.22;;;;;;;;;;10550680;27;20074;-76
2024/01/01 11:05:50;;;;;;;1.63;1.35;;;;;;;;;;10554813;28;20042;-76
2024/01/01 11:10:53;;;;;;;2.80;0.63;;;;;;;;;;10549730;28;20067;-75
2024/01/01 11:16:00;;;;;;;2.83;0.80;;;;;;;;;;10555023;27;20070;-75
2024/01/01 11:21:06;;;;;;;3.85;1.75;;;;;;;;;;10549179;28;20121;-76
2024/01/01 11:26:27;;;;;;;1.95;0.98;;;;;;;;;;10545621;27;20686;-77
2024/01/01 11:31:32;;;;;;;0.80;0.80;;;;;;;;;;10541788;27;20055;-76
2024/01/01 11:36:35;;;;;;;1.52;0.90;;;;;;;;;;10550075;28;20043;-74
2024/01/01 11:41:37;;;;;;;1.10;1.00;;;;;;;;;;10546231;28;20048;-76
2024/01/01 11:46:42;;;;;;;1.95;1.08;;;;;;;;;;10544514;27;20071;-76
2024/01/01 11:51:49;;;;;;;1.67;1.25;;;;;;;;;;10548932;28;20067;-76
2024/01/01 11:56:54;;;;;;;2.95;1.40;;;;;;;;;;10544527;28;20032;-76
2024/01/01 12:01:58;;;;;;;1.42;1.15;;;;;;;;;;10552643;28;20160;-77
2024/01/01 12:07:01;;;;;;;1.70;1.20;;;;;;;;;;10536408;27;20547;-75
2024/01/01 12:12:05;;;;;;;1.60;1.47;;;;;;;;;;10547273;28;20048;-76
2024/01/01 12:17:09;;;;;;;2.58;1.60;;;;;;;;;;10557104;28;20048;-76
2024/01/01 12:22:21;;;;;;;3.40;1.73;;;;;;;;;;10548179;28;20102;-76
2024/01/01 12:27:23;;;;;;;2.05;1.30;;;;;;;;;;10554221;27;20023;-75
2024/01/01 12:32:29;;;;;;;2.20;0.73;;;;;;;;;;10545552;28;20066;-76
2024/01/01 12:37:32;;;;;;;2.17;0.65;;;;;;;;;;10540565;28;20048;-76
2024/01/01 12:42:35;;;;;;;2.58;0.90;;;;;;;;;;10546896;28;20039;-76
2024/01/01 12:47:39;;;;;;;2.97;1.05;;;;;;;;;;10546287;28;20043;-76
2024/01/01 12:52:41;;;;;;;3.45;0.90;;;;;;;;;;10550868;28;20151;-76
2024/01/01 12:57:44;;;;;;;3.70;1.00;;;;;;;;;;10545096;28;20468;-76
2024/01/01 13:02:48;;;;;;;2.80;1.02;;;;;;;;;;10548480;28;20104;-75
2024/01/01 13:07:51;;;;;;;1.35;0.80;;;;;;;;;;10543289;28;20126;-76
2024/01/01 13:12:53;;;;;;;1.60;0.82;;;;;;;;;;10547410;28;20377;-76
2024/01/01 13:17:57;;;;;;;1.35;0.80;;;;;;;;;;10551093;28;20678;-76
2024/01/01 13:23:00;;;;;;;;;;;;;;;;;;10545326;28;20492;-77
2024/01/01 13:28:03;;;;;;;1.00;0.73;;;;;;;;;;10535512;28;20595;-76
2024/01/01 13:33:07;;;;;;;1.92;0.70;;;;;;;;;;10548169;28;20129;-75
2024/01/01 13:38:10;;;;;;;1.17;0.60;;;;;;;;;;10543785;28;20046;-75
2024/01/01 13:43:14;;;;;;;3.33;1.00;;;;;;;;;;10543880;28;20453;-75
2024/01/01 13:48:17;;;;;;;;;;;;;;;;;;10546749;28;20714;-74
2024/01/01 13:53:21;;;;;;;3.63;0.65;;;;;;;;;;10548257;28;19931;-76
2024/01/01 13:58:24;;;;;;;2.70;1.00;;;;;;;;;;10554198;27;20072;-75
2024/01/01 14:03:26;;;;;;;2.03;0.73;;;;;;;;;;10553170;27;20507;-75
2024/01/01 14:08:35;;;;;;;2.47;0.60;;;;;;;;;;10551963;27;20054;-77
2024/01/01 14:13:37;;;;;;;3.08;0.80;;;;;;;;;;10553757;27;20150;-74
2024/01/01 14:18:40;;;;;;;3.20;0.70;;;;;;;;;;10558792;27;20063;-75
2024/01/01 14:23:44;;;;;;;2.17;0.80;;;;;;;;;;10556024;27;20086;-76
2024/01/01 14:28:47;;;;;;;1.83;0.40;;;;;;;;;;10554591;27;20707;-75
2024/01/01 14:33:49;;;;;;;1.45;0.43;;;;;;;;;;10546245;28;20055;-76
2024/01/01 14:38:56;;;;;;;1.85;0.65;;;;;;;;;;10556263;27;20035;-75
2024/01/01 14:43:59;;;;;;;1.77;0.55;;;;;;;;;;10552590;27;20127;-75
2024/01/01 14:49:02;;;;;;;2.83;0.32;;;;;;;;;;10554830;27;20073;-75
2024/01/01 14:54:06;;;;;;;1.98;0.70;;;;;;;;;;10537591;28;20075;-74
2024/01/01 14:59:09;;;;;;;3.63;0.77;;;;;;;;;;10545765;27;20097;-76
2024/01/01 15:04:12;;;;;;;3.30;0.60;;;;;;;;;;10550101;27;20039;-76
2024/01/01 15:09:16;;;;;;;2.42;1.17;;;;;;;;;;10549609;28;20039;-75
2024/01/01 15:14:19;;;;;;;1.90;0.75;;;;;;;;;;10550719;28;20151;-75
2024/01/01 15:19:21;;;;;;;3.30;0.88;;;;;;;;;;10549083;27;20114;-75
2024/01/01 15:24:25;;;;;;;3.17;1.17;;;;;;;;;;10551557;28;20410;-75
2024/01/01 15:29:28;;;;;;;4.93;0.80;;;;;;;;;;10537274;28;20126;-75
2024/01/01 15:40:36;;;;;;;0.75;0.45;;;;;;;;;;10562091;27;20043;-76
2024/01/01 15:45:39;;;;;;;;;;;;;;;;;;10580528;27;20057;-75
2024/01/01 15:50:44;;;;;;;1.85;0.63;;;;;;;;;;10582499;27;19955;-74
2024/01/01 15:56:01;;;;;;;3.00;0.70;;;;;;;;;;10576714;27;20043;-73
2024/01/01 16:01:07;;;;;;;4.25;0.80;;;;;;;;;;10587657;27;20043;-74
2024/01/01 16:06:10;;;;;;;3.35;0.80;;;;;;;;;;10579890;27;20145;-74
2024/01/01 16:11:14;;;;;;;4.20;1.20;;;;;;;;;;10590908;27;20511;-75
2024/01/01 16:16:17;;;;;;;1.88;0.35;;;;;;;;;;10579927;27;20157;-75
2024/01/01 16:21:19;;;;;;;2.78;0.73;;;;;;;;;;10579874;27;20044;-75
2024/01/01 16:26:23;;;;;;;3.60;0.80;;;;;;;;;;10578549;27;20053;-75
2024/01/01 16:31:26;;;;;;;3.88;1.10;;;;;;;;;;10587646;27;20759;-74
2024/01/01 16:36:29;;;;;;;2.75;0.75;;;;;;;;;;10580010;27;20048;-74
2024/01/01 16:41:34;;;;;;;1.50;0.50;;;;;;;;;;10590978;27;20099;-75
2024/01/01 16:46:37;;;;;;;1.40;0.85;;;;;;;;;;10583316;27;20164;-75
2024/01/01 16:51:44;;;;;;;1.17;0.88;;;;;;;;;;10578195;27;20089;-75
2024/01/01 16:56:48;;;;;;;2.70;0.50;;;;;;;;;;10571537;27;20035;-75
2024/01/01 17:01:51;;;;;;;4.18;0.60;;;;;;;;;;10579670;27;20246;-76
2024/01/01 17:06:54;;;;;;;1.45;0.70;;;;;;;;;;10580888;27;20048;-75
2024/01/01 17:11:58;;;;;;;0.93;0.53;;;;;;;;;;10574842;27;20039;-74
2024/01/01 17:17:02;;;;;;;1.60;1.50;;;;;;;;;;10575672;27;20305;-76
2024/01/01 17:22:04;;;;;;;3.03;0.73;;;;;;;;;;10588600;27;20067;-75
2024/01/01 17:27:08;;;;;;;2.65;0.90;;;;;;;;;;10597605;27;20865;-74
2024/01/01 17:32:15;;;;;;;2.65;0.73;;;;;;;;;;10587158;27;20039;-75
2024/01/01 17:37:19;;;;;;;2.17;1.30;;;;;;;;;;10586194;27;20043;-75
2024/01/01 17:42:24;;;;;;;0.27;0.20;;;;;;;;;;10580547;27;20169;-75
2024/01/01 17:47:27;;;;;;;4.75;1.10;;;;;;;;;;10584992;27;20289;-75
2024/01/01 17:52:30;;;;;;;1.85;0.90;;;;;;;;;;10586495;27;20058;-74
2024/01/01 17:57:34;;;;;;;0.93;0.30;;;;;;;;;;10584832;27;20080;-74
2024/01/01 18:02:37;;;;;;;1.88;0.77;;;;;;;;;;10582399;27;20051;-74
2024/01/01 18:07:41;;;;;;;1.63;0.63;;;;;;;;;;10597563;27;20039;-75
2024/01/01 18:12:45;;;;;;;2.35;0.65;;;;;;;;;;10599106;27;20042;-75
2024/01/01 18:17:50;;;;;;;1.63;0.43;;;;;;;;;;10601767;27;20063;-75
2024/01/01 18:22:52;;;;;;;1.48;0.52;;;;;;;;;;10582210;27;20555;-75
2024/01/01 18:27:56;;;;;;;1.35;0.80;;;;;;;;;;10562100;27;20109;-74
2024/01/01 18:32:59;;;;;;;;;;;;;;;;;;10591255;27;20132;-74
2024/01/01 18:38:03;;;;;;;3.10;1.13;;;;;;;;;;10586428;27;19930;-74
2024/01/01 18:43:07;;;;;;;1.88;0.73;;;;;;;;;;10586451;27;20043;-74
2024/01/01 18:48:10;;;;;;;1.08;0.50;;;;;;;;;;10587760;27;20066;-74
2024/01/01 18:53:12;;;;;;;2.55;0.52;;;;;;;;;;10585114;27;20469;-74
2024/01/01 18:58:16;;;;;;;0.32;0.32;;;;;;;;;;10596288;27;20043;-75
2024/01/01 19:03:20;;;;;;;0.77;0.60;;;;;;;;;;10592053;27;20047;-75
2024/01/01 19:08:23;;;;;;;4.63;1.00;;;;;;;;;;10594243;27;20634;-75
2024/01/01 19:13:28;;;;;;;0.35;0.20;;;;;;;;;;10606656;27;20034;-76
2024/01/01 19:18:30;;;;;;;;;;;;;;;;;;10591126;27;20044;-75
2024/01/01 19:23:33;;;;;;;1.42;0.80;;;;;;;;;;10599534;27;19927;-76
2024/01/01 19:28:38;;;;;;;1.75;0.80;;;;;;;;;;10599379;27;20049;-75
2024/01/01 19:33:41;;;;;;;3.13;1.02;;;;;;;;;;10591094;27;20047;-76
2024/01/01 19:38:44;;;;;;;2.20;0.90;;;;;;;;;;10596149;27;20043;-76
2024/01/01 19:43:48;;;;;;;3.72;0.73;;;;;;;;;;10591182;27;20065;-76
2024/01/01 19:48:51;;;;;;;1.85;0.82;;;;;;;;;;10599977;27;20527;-76
2024/01/01 19:53:54;;;;;;;3.13;0.82;;;;;;;;;;10597169;27;20740;-75
2024/01/01 19:58:58;;;;;;;3.42;0.80;;;;;;;;;;10594029;27;20035;-75
2024/01/01 20:04:01;;;;;;;2.05;0.82;;;;;;;;;;10586038;27;20060;-75
2024/01/01 20:09:03;;;;;;;3.65;0.60;;;;;;;;;;10608148;27;20121;-76
2024/01/01 20:14:10;;;;;;;2.00;0.80;;;;;;;;;;10587612;27;20118;-75
2024/01/01 20:19:13;;;;;;;2.22;0.88;;;;;;;;;;10585686;27;20040;-76
2024/01/01 20:24:17;;;;;;;0.68;0.40;;;;;;;;;;10599060;27;20039;-77
2024/01/01 20:29:21;;;;;;;2.63;0.50;;;;;;;;;;10577124;27;20240;-75
2024/01/01 20:34:23;;;;;;;2.72;0.73;;;;;;;;;;10593939;27;20043;-76
2024/01/01 20:39:26;;;;;;;6.13;1.38;;;;;;;;;;10597311;27;20041;-74
2024/01/01 20:44:30;;;;;;;2.72;1.00;;;;;;;;;;10597614;27;20093;-75
2024/01/01 20:49:33;;;;;;;1.88;0.43;;;;;;;;;;10590223;27;20097;-75
2024/01/01 20:54:36;;;;;;;0.93;0.55;;;;;;;;;;10588227;27;20130;-75
2024/01/01 20:59:40;;;;;;;2.67;1.10;;;;;;;;;;10605663;27;20035;-76
2024/01/01 21:04:43;;;;;;;3.33;0.43;;;;;;;;;;10596910;27;20062;-76
2024/01/01 21:09:46;;;;;;;1.75;0.55;;;;;;;;;;10604415;27;20095;-75
2024/01/01 21:14:50;;;;;;;3.10;0.47;;;;;;;;;;10602074;27;20134;-74
2024/01/01 21:19:52;;;;;;;0.30;0.20;;;;;;;;;;10596601;27;20055;-74
2024/01/01 21:24:55;;;;;;;1.25;0.60;;;;;;;;;;10599688;27;20118;-75
2024/01/01 21:29:59;;;;;;;1.52;0.55;;;;;;;;;;10598898;27;20080;-77
2024/01/01 21:35:03;;;;;;;0.45;0.22;;;;;;;;;;10597727;27;20051;-75
2024/01/01 21:40:06;;;;;;;1.27;0.63;;;;;;;;;;10593793;27;20484;-75
2024/01/01 21:45:10;;;;;;;3.43;0.37;;;;;;;;;;10595412;27;20209;-75
2024/01/01 21:50:13;;;;;;;;;;;;;;;;;;10597503;27;20476;-76
2024/01/01 21:55:16;;;;;;;0.30;0.20;;;;;;;;;;10584904;27;20018;-74
2024/01/01 22:00:20;;;;;;;1.77;0.75;;;;;;;;;;10596927;27;20130;-75
2024/01/01 22:05:23;;;;;;;5.22;1.02;;;;;;;;;;10593072;27;20406;-76
2024/01/01 22:10:26;;;;;;;6.03;1.20;;;;;;;;;;10574712;27;20043;-76
2024/01/01 22:15:30;;;;;;;0.88;0.50;;;;;;;;;;10594336;27;20051;-76
2024/01/01 22:20:32;;;;;;;2.35;0.98;;;;;;;;;;10596386;27;20476;-76
2024/01/01 22:25:36;;;;;;;2.25;0.88;;;;;;;;;;10590708;27;20055;-76
2024/01/01 22:30:40;;;;;;;6.38;1.30;;;;;;;;;;10586516;27;20043;-76
2024/01/01 22:35:43;;;;;;;3.70;1.02;;;;;;;;;;10589260;27;20534;-76
2024/01/01 22:40:45;;;;;;;1.92;1.08;;;;;;;;;;10588263;27;20075;-76
2024/01/01 22:45:49;;;;;;;1.92;1.00;;;;;;;;;;10583599;27;20036;-75
2024/01/01 22:50:52;;;;;;;0.20;0.17;;;;;;;;;;10598987;27;20382;-77
2024/01/01 22:55:55;;;;;;;6.13;1.30;;;;;;;;;;10590375;27;20043;-76
2024/01/01 23:00:59;;;;;;;11.40;1.85;;;;;;;;;;10596143;27;20050;-76
2024/01/01 23:06:02;;;;;;;2.42;0.90;;;;;;;;;;10594328;27;20039;-75
2024/01/01 23:11:05;;;;;;;2.35;1.00;;;;;;;;;;10587594;27;20038;-74
2024/01/01 23:16:09;;;;;;;2.13;0.93;;;;;;;;;;10583394;27;20043;-75
2024/01/01 23:21:12;;;;;;;1.27;0.73;;;;;;;;;;10595257;27;20476;-75
2024/01/01 23:26:14;;;;;;;1.15;0.47;;;;;;;;;;10587377;27;20546;-74
2024/01/01 23:31:18;;;;;;;2.80;0.85;;;;;;;;;;10589817;27;20051;-75
2024/01/01 23:36:21;;;;;;;1.83;0.93;;;;;;;;;;10585452;27;20416;-75
2024/01/01 23:41:24;;;;;;;4.00;0.80;;;;;;;;;;10583184;27;20053;-74
2024/01/01 23:46:28;;;;;;;0.50;0.43;;;;;;;;;;10589397;27;20536;-74
2024/01/01 23:51:30;;;;;;;2.63;0.93;;;;;;;;;;10584982;27;20050;-75
2024/01/01 23:56:33;;;;;;;1.00;0.43;;;;;;;;;;10583651;27;20456;-75
